Dockton, Washington
Current Conditions -  °F | °C
As of 3:53 PM on Friday 24 Oct 2014 (Local Time) from KSEA Reporting Station
Overcast Overcast  
Wind Chill: 57°   Ceiling: 15000
Heat Index: 57°   Visibility: 10mi
Dew Point: 47°   Wind: 12mph
Humidity: 69%   Direction: 10°N
Pressure: 29.94"   Gusts: NA
Location:  47.4122°N, 122.472°W
Report Text: KSEA 242253Z 01010KT 10SM FEW100 OVC150 14/08 A2994 RMK AO2 SLP143 T01390083
Loading
Personal Weather Stations






























Interactive Weather Map
Tropical Storm Tracking
New forecast layout! Learn more

10-Day Weather Forecast

Advertisements
Track Severe Weather on mobile